createdAt,value
2016-11-28T00:00:08.622Z,26.07
2016-11-28T00:00:36.503Z,26.03
2016-11-28T00:01:04.406Z,26
2016-11-28T00:01:32.159Z,26.03
2016-11-28T00:01:59.963Z,25.88
2016-11-28T00:02:27.907Z,25.88
2016-11-28T00:02:55.725Z,25.85
2016-11-28T00:03:23.490Z,25.99
2016-11-28T00:03:51.468Z,25.91
2016-11-28T00:04:19.234Z,25.85
2016-11-28T00:04:47.073Z,25.99
2016-11-28T00:05:15.086Z,26.02
2016-11-28T00:05:42.859Z,26
2016-11-28T00:06:10.603Z,25.99
2016-11-28T00:06:38.413Z,26.02
2016-11-28T00:07:06.222Z,26.05
2016-11-28T00:07:34.081Z,26
2016-11-28T00:08:01.908Z,26
2016-11-28T00:08:29.744Z,26.1
2016-11-28T00:08:57.604Z,26.05
2016-11-28T00:09:25.484Z,26.03
2016-11-28T00:09:53.249Z,26.02
2016-11-28T00:10:21.128Z,25.84
2016-11-28T00:10:48.891Z,25.83
2016-11-28T00:11:16.753Z,25.8
2016-11-28T00:11:44.563Z,25.78
2016-11-28T00:12:12.351Z,25.91
2016-11-28T00:12:40.184Z,25.93
2016-11-28T00:13:08.009Z,25.91
2016-11-28T00:13:35.780Z,25.93
2016-11-28T00:14:03.649Z,25.9
2016-11-28T00:14:31.445Z,25.95
2016-11-28T00:14:59.272Z,26.03
2016-11-28T00:15:27.025Z,25.98
2016-11-28T00:15:54.833Z,26.02
2016-11-28T00:16:22.635Z,26.03
2016-11-28T00:16:50.495Z,26.03
2016-11-28T00:17:18.233Z,26.02
2016-11-28T00:17:46.185Z,25.85
2016-11-28T00:18:14.010Z,25.9
2016-11-28T00:18:41.829Z,25.98
2016-11-28T00:19:09.707Z,25.99
2016-11-28T00:19:37.623Z,25.93
2016-11-28T00:20:05.382Z,25.99
2016-11-28T00:20:33.162Z,26.02
2016-11-28T00:21:00.941Z,25.93
2016-11-28T00:21:28.781Z,25.96
2016-11-28T00:21:56.696Z,26.03
2016-11-28T00:22:24.513Z,25.99
2016-11-28T00:22:52.314Z,26.02
2016-11-28T00:23:20.113Z,26
2016-11-28T00:23:47.961Z,25.93
2016-11-28T00:24:16.012Z,26.02
2016-11-28T00:24:43.807Z,25.88
2016-11-28T00:25:11.607Z,25.88
2016-11-28T00:25:40.006Z,25.9
2016-11-28T00:26:07.778Z,25.93
2016-11-28T00:26:35.632Z,25.99
2016-11-28T00:27:03.497Z,26
2016-11-28T00:27:31.346Z,26.02
2016-11-28T00:27:59.190Z,26.05
2016-11-28T00:28:27.090Z,26.02
2016-11-28T00:28:55.059Z,26
2016-11-28T00:29:23.005Z,25.99
2016-11-28T00:29:50.776Z,26
2016-11-28T00:30:18.881Z,25.95
2016-11-28T00:30:46.834Z,26.03
2016-11-28T00:31:14.619Z,26.02
2016-11-28T00:31:42.378Z,25.87
2016-11-28T00:32:10.140Z,25.91
2016-11-28T00:32:37.984Z,25.88
2016-11-28T00:33:05.865Z,25.87
2016-11-28T00:33:33.627Z,25.84
2016-11-28T00:34:01.606Z,25.9
2016-11-28T00:34:29.489Z,25.91
2016-11-28T00:34:57.269Z,26.02
2016-11-28T00:35:25.049Z,25.95
2016-11-28T00:35:52.832Z,25.95
2016-11-28T00:36:20.594Z,25.93
2016-11-28T00:36:48.461Z,26
2016-11-28T00:37:16.202Z,26.02
2016-11-28T00:37:44.115Z,26.07
2016-11-28T00:38:12.180Z,26
2016-11-28T00:38:39.997Z,25.95
2016-11-28T00:39:07.927Z,25.9
2016-11-28T00:39:35.876Z,25.87
2016-11-28T00:40:03.671Z,25.95
2016-11-28T00:40:31.508Z,25.84
2016-11-28T00:40:59.414Z,25.8
2016-11-28T00:41:27.331Z,25.77
2016-11-28T00:41:55.223Z,25.77
2016-11-28T00:42:23.052Z,25.72
2016-11-28T00:42:51.017Z,25.77
2016-11-28T00:43:18.789Z,25.81
2016-11-28T00:43:46.832Z,25.7
2016-11-28T00:44:14.827Z,25.81
2016-11-28T00:44:42.699Z,25.72
2016-11-28T00:45:10.638Z,25.81
2016-11-28T00:45:38.580Z,25.81
2016-11-28T00:46:06.362Z,25.78
2016-11-28T00:46:34.145Z,25.81
2016-11-28T00:47:02.032Z,25.84
2016-11-28T00:47:29.852Z,25.88
2016-11-28T00:47:57.819Z,25.84
2016-11-28T00:48:25.781Z,25.87
2016-11-28T00:48:53.552Z,25.88
2016-11-28T00:49:21.400Z,25.88
2016-11-28T00:49:49.186Z,25.93
2016-11-28T00:50:16.996Z,25.87
2016-11-28T00:50:44.826Z,25.83
2016-11-28T00:51:12.623Z,25.96
2016-11-28T00:51:40.404Z,25.91
2016-11-28T00:52:08.294Z,25.9
2016-11-28T00:52:36.129Z,25.88
2016-11-28T00:53:03.918Z,25.88
2016-11-28T00:53:31.804Z,25.96
2016-11-28T00:53:59.560Z,25.8
2016-11-28T00:54:27.577Z,25.81
2016-11-28T00:54:55.399Z,25.85
2016-11-28T00:55:23.185Z,25.77
2016-11-28T00:55:51.091Z,25.83
2016-11-28T00:56:18.937Z,25.69
2016-11-28T00:56:46.717Z,25.84
2016-11-28T00:57:14.569Z,25.8
2016-11-28T00:57:42.428Z,25.84
2016-11-28T00:58:10.314Z,25.78
2016-11-28T00:58:38.274Z,25.81
2016-11-28T00:59:06.356Z,25.84
2016-11-28T00:59:34.236Z,25.88
2016-11-28T01:00:01.969Z,25.93
2016-11-28T01:00:29.825Z,25.98
2016-11-28T01:00:57.595Z,25.8
2016-11-28T01:01:25.424Z,25.88
2016-11-28T01:01:53.315Z,25.78
2016-11-28T01:02:21.165Z,25.83
2016-11-28T01:02:49.077Z,25.73
2016-11-28T01:03:16.922Z,25.73
2016-11-28T01:03:44.741Z,25.77
2016-11-28T01:04:12.607Z,25.73
2016-11-28T01:04:40.395Z,25.73
2016-11-28T01:05:08.234Z,25.75
2016-11-28T01:05:36.053Z,25.75
2016-11-28T01:06:03.863Z,25.81
2016-11-28T01:06:31.716Z,25.8
2016-11-28T01:06:59.566Z,25.8
2016-11-28T01:07:27.356Z,25.81
2016-11-28T01:07:55.190Z,25.7
2016-11-28T01:08:23.041Z,25.75
2016-11-28T01:08:50.826Z,25.83
2016-11-28T01:09:18.798Z,25.72
2016-11-28T01:09:46.561Z,25.73
2016-11-28T01:10:14.431Z,25.75
2016-11-28T01:10:42.241Z,25.7
2016-11-28T01:11:10.085Z,25.62
2016-11-28T01:11:37.919Z,25.55
2016-11-28T01:12:05.705Z,25.77
2016-11-28T01:12:33.496Z,25.77
2016-11-28T01:13:01.260Z,25.7
2016-11-28T01:13:29.032Z,25.72
2016-11-28T01:13:56.836Z,25.77
2016-11-28T01:14:24.690Z,25.72
2016-11-28T01:14:52.440Z,25.7
2016-11-28T01:15:20.355Z,25.68
2016-11-28T01:15:48.232Z,25.75
2016-11-28T01:16:16.108Z,25.7
2016-11-28T01:16:43.962Z,25.78
2016-11-28T01:17:11.777Z,25.81
2016-11-28T01:17:39.616Z,25.84
2016-11-28T01:18:07.507Z,25.78
2016-11-28T01:18:35.369Z,25.8
2016-11-28T01:19:03.166Z,25.73
2016-11-28T01:19:31.049Z,25.8
2016-11-28T01:19:58.859Z,25.83
2016-11-28T01:20:26.715Z,25.81
2016-11-28T01:20:54.461Z,25.77
2016-11-28T01:21:22.306Z,25.81
2016-11-28T01:21:50.166Z,25.72
2016-11-28T01:22:18.024Z,25.63
2016-11-28T01:22:45.856Z,25.69
2016-11-28T01:23:13.664Z,25.66
2016-11-28T01:23:41.488Z,25.65
2016-11-28T01:24:09.389Z,25.59
2016-11-28T01:24:37.287Z,25.6
2016-11-28T01:25:05.152Z,25.58
2016-11-28T01:25:33.024Z,25.63
2016-11-28T01:26:00.979Z,25.53
2016-11-28T01:26:28.725Z,25.5
2016-11-28T01:26:56.690Z,25.5
2016-11-28T01:27:24.569Z,25.51
2016-11-28T01:27:52.332Z,25.58
2016-11-28T01:28:20.118Z,25.53
2016-11-28T01:28:48.015Z,25.47
2016-11-28T01:29:15.869Z,25.5
2016-11-28T01:29:43.885Z,25.59
2016-11-28T01:30:11.646Z,25.54
2016-11-28T01:30:39.543Z,25.5
2016-11-28T01:31:07.352Z,25.48
2016-11-28T01:31:35.113Z,25.5
2016-11-28T01:32:03.005Z,25.62
2016-11-28T01:32:30.796Z,25.63
2016-11-28T01:32:58.823Z,25.63
2016-11-28T01:33:26.569Z,25.63
2016-11-28T01:33:54.555Z,25.65
2016-11-28T01:34:22.394Z,25.6
2016-11-28T01:34:50.259Z,25.62
2016-11-28T01:35:18.004Z,25.63
2016-11-28T01:35:45.732Z,25.59
2016-11-28T01:36:13.531Z,25.63
2016-11-28T01:36:41.348Z,25.63
2016-11-28T01:37:09.142Z,25.65
2016-11-28T01:37:37.022Z,25.66
2016-11-28T01:38:04.868Z,25.55
2016-11-28T01:38:32.635Z,25.62
2016-11-28T01:39:00.417Z,25.65
2016-11-28T01:39:28.178Z,25.59
2016-11-28T01:39:56.075Z,25.68
2016-11-28T01:40:23.905Z,25.6
2016-11-28T01:40:51.741Z,25.62
2016-11-28T01:41:19.710Z,25.6
2016-11-28T01:41:47.470Z,25.63
2016-11-28T01:42:15.351Z,25.66
2016-11-28T01:42:43.121Z,25.62
2016-11-28T01:43:10.960Z,25.68
2016-11-28T01:43:38.821Z,25.65
2016-11-28T01:44:06.629Z,25.7
2016-11-28T01:44:34.474Z,25.75
2016-11-28T01:45:02.387Z,25.7
2016-11-28T01:45:30.187Z,25.75
2016-11-28T01:45:58.162Z,25.7
2016-11-28T01:46:25.952Z,25.69
2016-11-28T01:46:53.735Z,25.72
2016-11-28T01:47:21.712Z,25.68
2016-11-28T01:47:49.462Z,25.73
2016-11-28T01:48:17.255Z,25.58
2016-11-28T01:48:45.151Z,25.65
2016-11-28T01:49:12.917Z,25.51
2016-11-28T01:49:40.923Z,25.53
2016-11-28T01:50:08.792Z,25.51
2016-11-28T01:50:36.607Z,25.43
2016-11-28T01:51:04.393Z,25.41
2016-11-28T01:51:32.171Z,25.44
2016-11-28T01:51:59.943Z,25.44
2016-11-28T01:52:27.819Z,25.4
2016-11-28T01:52:55.636Z,25.46
2016-11-28T01:53:23.551Z,25.38
2016-11-28T01:53:51.324Z,25.43
2016-11-28T01:54:19.181Z,25.41
2016-11-28T01:54:47.063Z,25.4
2016-11-28T01:55:14.973Z,25.36
2016-11-28T01:55:42.759Z,25.41
2016-11-28T01:56:10.587Z,25.4
2016-11-28T01:56:38.430Z,25.38
2016-11-28T01:57:06.209Z,25.55
2016-11-28T01:57:33.953Z,25.53
2016-11-28T01:58:01.711Z,25.5
2016-11-28T01:58:29.446Z,25.53
2016-11-28T01:58:57.206Z,25.5
2016-11-28T01:59:24.965Z,25.44
2016-11-28T01:59:53.056Z,25.43
2016-11-28T02:00:20.833Z,25.43
2016-11-28T02:00:48.777Z,25.41
2016-11-28T02:01:16.588Z,25.41
2016-11-28T02:01:44.375Z,25.38
2016-11-28T02:02:12.159Z,25.46
2016-11-28T02:02:39.985Z,25.41
2016-11-28T02:03:07.867Z,25.44
2016-11-28T02:03:35.692Z,25.4
2016-11-28T02:04:03.579Z,25.4
2016-11-28T02:04:31.335Z,25.36
2016-11-28T02:04:59.231Z,25.33
2016-11-28T02:05:27.021Z,25.4
2016-11-28T02:05:54.859Z,25.28
2016-11-28T02:06:22.690Z,25.32
2016-11-28T02:06:50.527Z,25.29
2016-11-28T02:07:18.312Z,25.35
2016-11-28T02:07:46.156Z,25.31
2016-11-28T02:08:13.930Z,25.36
2016-11-28T02:08:41.767Z,25.32
2016-11-28T02:09:09.535Z,25.35
2016-11-28T02:09:37.283Z,25.4
2016-11-28T02:10:05.339Z,25.35
2016-11-28T02:10:33.094Z,25.35
2016-11-28T02:11:00.830Z,25.38
2016-11-28T02:11:28.590Z,25.46
2016-11-28T02:11:56.383Z,25.47
2016-11-28T02:12:24.217Z,25.43
2016-11-28T02:12:52.034Z,25.44
2016-11-28T02:13:19.906Z,25.4
2016-11-28T02:13:47.678Z,25.38
2016-11-28T02:14:15.443Z,25.41
2016-11-28T02:14:43.286Z,25.41
2016-11-28T02:15:11.138Z,25.4
2016-11-28T02:15:38.940Z,25.35
2016-11-28T02:16:06.754Z,25.36
2016-11-28T02:16:34.675Z,25.36
2016-11-28T02:17:02.508Z,25.35
2016-11-28T02:17:30.308Z,25.36
2016-11-28T02:17:58.096Z,25.36
2016-11-28T02:18:25.844Z,25.33
2016-11-28T02:18:53.637Z,25.36
2016-11-28T02:19:21.509Z,25.36
2016-11-28T02:19:49.298Z,25.29
2016-11-28T02:20:17.178Z,25.33
2016-11-28T02:20:44.961Z,25.35
2016-11-28T02:21:12.781Z,25.33
2016-11-28T02:21:40.634Z,25.36
2016-11-28T02:22:08.493Z,25.33
2016-11-28T02:22:36.303Z,25.29
2016-11-28T02:23:04.127Z,25.41
2016-11-28T02:23:32.048Z,25.36
2016-11-28T02:23:59.872Z,25.38
2016-11-28T02:24:27.728Z,25.38
2016-11-28T02:24:55.512Z,25.46
2016-11-28T02:25:23.403Z,25.44
2016-11-28T02:25:51.178Z,25.5
2016-11-28T02:26:18.953Z,25.5
2016-11-28T02:26:46.765Z,25.51
2016-11-28T02:27:14.747Z,25.54
2016-11-28T02:27:42.549Z,25.54
2016-11-28T02:28:10.455Z,25.48
2016-11-28T02:28:38.249Z,25.51
2016-11-28T02:29:06.012Z,25.53
2016-11-28T02:29:33.850Z,25.48
2016-11-28T02:30:01.658Z,25.48
2016-11-28T02:30:29.548Z,25.53
2016-11-28T02:30:57.425Z,25.47
2016-11-28T02:31:25.280Z,25.5
2016-11-28T02:31:53.165Z,25.48
2016-11-28T02:32:21.105Z,25.44
2016-11-28T02:32:48.905Z,25.46
2016-11-28T02:33:16.970Z,25.47
2016-11-28T02:33:44.771Z,25.53
2016-11-28T02:34:12.523Z,25.5
2016-11-28T02:34:40.378Z,25.54
2016-11-28T02:35:08.149Z,25.43
2016-11-28T02:35:36.007Z,25.41
2016-11-28T02:36:03.801Z,25.36
2016-11-28T02:36:31.638Z,25.31
2016-11-28T02:36:59.511Z,25.26
2016-11-28T02:37:27.375Z,25.32
2016-11-28T02:37:55.205Z,25.25
2016-11-28T02:38:23.003Z,25.22
2016-11-28T02:38:50.786Z,25.25
2016-11-28T02:39:18.540Z,25.29
2016-11-28T02:39:46.276Z,25.25
2016-11-28T02:40:14.009Z,25.23
2016-11-28T02:40:41.940Z,25.29
2016-11-28T02:41:09.702Z,25.25
2016-11-28T02:41:37.493Z,25.28
2016-11-28T02:42:05.301Z,25.26
2016-11-28T02:42:33.125Z,25.32
2016-11-28T02:43:00.934Z,25.26
2016-11-28T02:43:28.691Z,25.32
2016-11-28T02:43:56.534Z,25.32
2016-11-28T02:44:24.309Z,25.33
2016-11-28T02:44:52.108Z,25.35
2016-11-28T02:45:19.897Z,25.41
2016-11-28T02:45:47.880Z,25.41
2016-11-28T02:46:15.649Z,25.44
2016-11-28T02:46:43.576Z,25.4
2016-11-28T02:47:11.427Z,25.36
2016-11-28T02:47:39.207Z,25.4
2016-11-28T02:48:06.976Z,25.4
2016-11-28T02:48:34.790Z,25.35
2016-11-28T02:49:02.565Z,25.26
2016-11-28T02:49:30.468Z,25.26
2016-11-28T02:49:58.248Z,25.29
2016-11-28T02:50:26.259Z,25.32
2016-11-28T02:50:54.222Z,25.29
2016-11-28T02:51:22.004Z,25.21
2016-11-28T02:51:49.747Z,25.25
2016-11-28T02:52:17.509Z,25.22
2016-11-28T02:52:45.292Z,25.32
2016-11-28T02:53:13.073Z,25.25
2016-11-28T02:53:40.906Z,25.31
2016-11-28T02:54:08.706Z,25.29
2016-11-28T02:54:36.492Z,25.33
2016-11-28T02:55:04.261Z,25.35
2016-11-28T02:55:32.102Z,25.33
2016-11-28T02:56:00.086Z,25.33
2016-11-28T02:56:27.892Z,25.32
2016-11-28T02:56:55.740Z,25.38
2016-11-28T02:57:23.518Z,25.36
2016-11-28T02:57:51.379Z,25.36
2016-11-28T02:58:19.157Z,25.4
2016-11-28T02:58:47.020Z,25.36
2016-11-28T02:59:14.798Z,25.4
2016-11-28T02:59:42.574Z,25.28
2016-11-28T03:00:10.379Z,25.33
2016-11-28T03:00:38.125Z,25.31
2016-11-28T03:01:06.004Z,25.31
2016-11-28T03:01:33.801Z,25.22
2016-11-28T03:02:01.566Z,25.17
2016-11-28T03:02:29.419Z,25.16
2016-11-28T03:02:57.279Z,25.17
2016-11-28T03:03:25.053Z,25.16
2016-11-28T03:03:52.973Z,25.1
2016-11-28T03:04:20.831Z,25.18
2016-11-28T03:04:48.662Z,25.14
2016-11-28T03:05:16.430Z,25.21
2016-11-28T03:05:44.313Z,25.16
2016-11-28T03:06:12.206Z,25.14
2016-11-28T03:06:40.024Z,25.17
2016-11-28T03:07:07.843Z,25.13
2016-11-28T03:07:35.583Z,25.13
2016-11-28T03:08:03.442Z,25.18
2016-11-28T03:08:31.208Z,25.16
2016-11-28T03:08:59.102Z,25.13
2016-11-28T03:09:26.997Z,25.18
2016-11-28T03:09:54.809Z,25.16
2016-11-28T03:10:22.605Z,25.16
2016-11-28T03:10:50.413Z,25.25
2016-11-28T03:11:18.350Z,25.28
2016-11-28T03:11:46.262Z,25.28
2016-11-28T03:12:14.007Z,25.23
2016-11-28T03:12:41.917Z,25.23
2016-11-28T03:13:09.689Z,25.29
2016-11-28T03:13:37.527Z,25.17
2016-11-28T03:14:05.457Z,25.21
2016-11-28T03:14:33.345Z,25.29
2016-11-28T03:15:01.149Z,25.23
2016-11-28T03:15:28.904Z,25.28
2016-11-28T03:15:56.798Z,25.16
2016-11-28T03:16:24.616Z,25.17
2016-11-28T03:16:52.448Z,25.26
2016-11-28T03:17:20.274Z,25.21
2016-11-28T03:17:48.043Z,25.26
2016-11-28T03:18:15.867Z,25.22
2016-11-28T03:18:43.624Z,25.25
2016-11-28T03:19:11.475Z,25.33
2016-11-28T03:19:39.330Z,25.23
2016-11-28T03:20:07.120Z,25.33
2016-11-28T03:20:34.958Z,25.23
2016-11-28T03:21:02.876Z,25.25
2016-11-28T03:21:30.647Z,25.22
2016-11-28T03:21:58.519Z,25.29
2016-11-28T03:22:26.303Z,25.29
2016-11-28T03:22:54.112Z,25.29
2016-11-28T03:23:21.890Z,25.28
2016-11-28T03:23:49.667Z,25.31
2016-11-28T03:24:17.553Z,25.31
2016-11-28T03:24:45.327Z,25.28
2016-11-28T03:25:13.240Z,25.29
2016-11-28T03:25:41.066Z,25.35
2016-11-28T03:26:08.899Z,25.35
2016-11-28T03:26:36.695Z,25.26
2016-11-28T03:27:04.552Z,25.29
2016-11-28T03:27:32.350Z,25.25
2016-11-28T03:28:00.253Z,25.25
2016-11-28T03:28:28.182Z,25.32
2016-11-28T03:28:56.003Z,25.21
2016-11-28T03:29:23.862Z,25.28
2016-11-28T03:29:51.674Z,25.17
2016-11-28T03:30:19.547Z,25.26
2016-11-28T03:30:47.464Z,25.17
2016-11-28T03:31:15.345Z,25.21
2016-11-28T03:31:43.183Z,25.22
2016-11-28T03:32:11.084Z,25.22
2016-11-28T03:32:38.853Z,25.26
2016-11-28T03:33:06.820Z,25.18
2016-11-28T03:33:34.703Z,25.22
2016-11-28T03:34:02.526Z,25.18
2016-11-28T03:34:30.317Z,25.16
2016-11-28T03:34:58.249Z,25.21
2016-11-28T03:35:26.057Z,25.14
2016-11-28T03:35:53.818Z,25.21
2016-11-28T03:36:21.674Z,25.16
2016-11-28T03:36:49.587Z,25.22
2016-11-28T03:37:17.504Z,25.16
2016-11-28T03:37:45.311Z,25.14
2016-11-28T03:38:13.082Z,25.26
2016-11-28T03:38:40.856Z,25.21
2016-11-28T03:39:08.618Z,25.13
2016-11-28T03:39:36.382Z,25.16
2016-11-28T03:40:04.212Z,25.16
2016-11-28T03:40:32.060Z,25.17
2016-11-28T03:40:59.885Z,25.16
2016-11-28T03:41:27.789Z,25.16
2016-11-28T03:41:55.666Z,25.14
2016-11-28T03:42:23.511Z,25.13
2016-11-28T03:42:51.290Z,25.21
2016-11-28T03:43:19.068Z,25.16
2016-11-28T03:43:46.959Z,25.29
2016-11-28T03:44:14.759Z,25.28
2016-11-28T03:44:42.594Z,25.13
2016-11-28T03:45:10.370Z,25.23
2016-11-28T03:45:38.219Z,25.18
2016-11-28T03:46:05.967Z,25.21
2016-11-28T03:46:33.977Z,25.25
2016-11-28T03:47:01.762Z,25.18
2016-11-28T03:47:29.540Z,25.17
2016-11-28T03:47:57.363Z,25.25
2016-11-28T03:48:25.149Z,25.22
2016-11-28T03:48:52.952Z,25.17
2016-11-28T03:49:20.823Z,25.16
2016-11-28T03:49:48.677Z,25.14
2016-11-28T03:50:16.438Z,25.21
2016-11-28T03:50:44.184Z,25.17
2016-11-28T03:51:11.983Z,25.17
2016-11-28T03:51:39.929Z,25.21
2016-11-28T03:52:07.739Z,25.14
2016-11-28T03:52:35.533Z,25.11
2016-11-28T03:53:03.333Z,25.18
2016-11-28T03:53:31.175Z,25.14
2016-11-28T03:53:58.930Z,25.16
2016-11-28T03:54:26.715Z,25.14
2016-11-28T03:54:54.676Z,25.1
2016-11-28T03:55:22.487Z,25.17
2016-11-28T03:55:50.290Z,25.13
2016-11-28T03:56:18.043Z,25.11
2016-11-28T03:56:45.954Z,25.17
2016-11-28T03:57:13.734Z,25.03
2016-11-28T03:57:41.584Z,25.01
2016-11-28T03:58:09.326Z,25.07
2016-11-28T03:58:37.123Z,24.96
2016-11-28T03:59:04.934Z,25.03
2016-11-28T03:59:32.738Z,25.01
2016-11-28T04:00:00.539Z,25.07
2016-11-28T04:00:28.443Z,25.04
2016-11-28T04:00:56.229Z,25.16
2016-11-28T04:01:24.304Z,25.13
2016-11-28T04:01:52.250Z,25.11
2016-11-28T04:02:20.022Z,25.13
2016-11-28T04:02:47.794Z,24.99
2016-11-28T04:03:15.746Z,25.14
2016-11-28T04:03:43.532Z,25.1
2016-11-28T04:04:11.303Z,25.06
2016-11-28T04:04:39.132Z,25.11
2016-11-28T04:05:06.957Z,25.08
2016-11-28T04:05:34.789Z,25.03
2016-11-28T04:06:02.576Z,25.1
2016-11-28T04:06:30.327Z,25.06
2016-11-28T04:06:58.278Z,25.04
2016-11-28T04:07:26.082Z,25.01
2016-11-28T04:07:53.885Z,25.01
2016-11-28T04:08:21.652Z,24.99
2016-11-28T04:08:49.416Z,25.08
2016-11-28T04:09:17.319Z,25.13
2016-11-28T04:09:45.194Z,25.11
2016-11-28T04:10:13.012Z,25.03
2016-11-28T04:10:40.753Z,25.01
2016-11-28T04:11:08.635Z,25.06
2016-11-28T04:11:36.502Z,25.01
2016-11-28T04:12:04.266Z,25.14
2016-11-28T04:12:32.159Z,25.03
2016-11-28T04:13:00.052Z,24.99
2016-11-28T04:13:27.838Z,24.99
2016-11-28T04:13:55.636Z,25.03
2016-11-28T04:14:23.465Z,25.04
2016-11-28T04:14:51.239Z,25.08
2016-11-28T04:15:19.152Z,25.1
2016-11-28T04:15:46.913Z,25.1
2016-11-28T04:16:14.700Z,25.06
2016-11-28T04:16:42.571Z,24.98
2016-11-28T04:17:10.325Z,24.99
2016-11-28T04:17:38.225Z,25.04
2016-11-28T04:18:06.039Z,25.03
2016-11-28T04:18:33.936Z,25.04
2016-11-28T04:19:01.767Z,24.99
2016-11-28T04:19:29.585Z,24.91
2016-11-28T04:19:57.417Z,24.88
2016-11-28T04:20:25.282Z,24.95
2016-11-28T04:20:53.037Z,24.98
2016-11-28T04:21:20.828Z,25.01
2016-11-28T04:21:48.801Z,25.03
2016-11-28T04:22:16.544Z,25.04
2016-11-28T04:22:44.401Z,25.04
2016-11-28T04:23:12.188Z,25.03
2016-11-28T04:23:39.946Z,25.04
2016-11-28T04:24:07.735Z,25.01
2016-11-28T04:24:35.579Z,25.16
2016-11-28T04:25:03.331Z,25.1
2016-11-28T04:25:31.097Z,25.08
2016-11-28T04:25:58.945Z,25.14
2016-11-28T04:26:26.778Z,24.99
2016-11-28T04:26:54.814Z,25.03
2016-11-28T04:27:22.679Z,25.16
2016-11-28T04:27:50.431Z,25.06
2016-11-28T04:28:18.269Z,25.06
2016-11-28T04:28:46.169Z,24.98
2016-11-28T04:29:13.958Z,25.04
2016-11-28T04:29:41.731Z,25.1
2016-11-28T04:30:09.567Z,25.06
2016-11-28T04:30:37.406Z,25.07
2016-11-28T04:31:05.401Z,25.01
2016-11-28T04:31:33.245Z,25.06
2016-11-28T04:32:01.117Z,25.03
2016-11-28T04:32:28.899Z,25.06
2016-11-28T04:32:56.621Z,25.07
2016-11-28T04:33:24.422Z,25.03
2016-11-28T04:33:52.237Z,25.07
2016-11-28T04:34:20.061Z,25.03
2016-11-28T04:34:48.063Z,25.07
2016-11-28T04:35:15.952Z,24.96
2016-11-28T04:35:44.012Z,25.04
2016-11-28T04:36:12.107Z,24.99
2016-11-28T04:36:39.925Z,24.99
2016-11-28T04:37:07.958Z,25.03
2016-11-28T04:37:35.726Z,24.88
2016-11-28T04:38:03.459Z,24.99
2016-11-28T04:38:31.196Z,24.98
2016-11-28T04:38:59.080Z,25.03
2016-11-28T04:39:26.850Z,25.06
2016-11-28T04:39:54.655Z,24.96
2016-11-28T04:40:22.453Z,25.03
2016-11-28T04:40:50.279Z,25.07
2016-11-28T04:41:18.126Z,24.98
2016-11-28T04:41:45.875Z,25.06
2016-11-28T04:42:13.837Z,25.03
2016-11-28T04:42:41.602Z,24.99
2016-11-28T04:43:09.498Z,24.92
2016-11-28T04:43:37.332Z,24.88
2016-11-28T04:44:05.078Z,24.91
2016-11-28T04:44:32.883Z,25.06
2016-11-28T04:45:00.672Z,25.03
2016-11-28T04:45:28.522Z,25.04
2016-11-28T04:45:56.278Z,25.01
2016-11-28T04:46:24.068Z,25.06
2016-11-28T04:46:51.863Z,25.1
2016-11-28T04:47:19.896Z,25.06
2016-11-28T04:47:47.825Z,25.07
2016-11-28T04:48:15.618Z,24.99
2016-11-28T04:48:43.504Z,25.06
2016-11-28T04:49:11.235Z,25.04
2016-11-28T04:49:39.121Z,25.04
2016-11-28T04:50:06.978Z,24.99
2016-11-28T04:50:34.839Z,24.95
2016-11-28T04:51:02.603Z,24.92
2016-11-28T04:51:30.339Z,24.89
2016-11-28T04:51:58.114Z,24.86
2016-11-28T04:52:26.100Z,24.81
2016-11-28T04:52:53.858Z,24.95
2016-11-28T04:53:21.693Z,24.95
2016-11-28T04:53:49.497Z,24.85
2016-11-28T04:54:17.235Z,24.95
2016-11-28T04:54:45.008Z,24.95
2016-11-28T04:55:12.874Z,24.91
2016-11-28T04:55:40.690Z,24.88
2016-11-28T04:56:08.472Z,24.8
2016-11-28T04:56:36.306Z,24.77
2016-11-28T04:57:04.132Z,24.77
2016-11-28T04:57:32.022Z,24.78
2016-11-28T04:57:59.807Z,24.73
2016-11-28T04:58:27.707Z,24.7
2016-11-28T04:58:55.521Z,24.61
2016-11-28T04:59:23.332Z,24.73
2016-11-28T04:59:51.113Z,24.6
2016-11-28T05:00:18.866Z,24.58
2016-11-28T05:00:46.925Z,24.61
2016-11-28T05:01:14.731Z,24.53
2016-11-28T05:01:42.546Z,24.63
2016-11-28T05:02:10.439Z,24.53
2016-11-28T05:02:38.353Z,24.58
2016-11-28T05:03:06.309Z,24.54
2016-11-28T05:03:34.131Z,24.68
2016-11-28T05:04:01.909Z,24.58
2016-11-28T05:04:29.649Z,24.63
2016-11-28T05:04:57.447Z,24.58
2016-11-28T05:05:25.371Z,24.55
2016-11-28T05:05:53.169Z,24.61
2016-11-28T05:06:20.928Z,24.74
2016-11-28T05:06:48.803Z,24.74
2016-11-28T05:07:16.554Z,24.6
2016-11-28T05:07:44.443Z,24.7
2016-11-28T05:08:12.329Z,24.77
2016-11-28T05:08:40.078Z,24.78
2016-11-28T05:09:07.866Z,24.77
2016-11-28T05:09:35.771Z,24.77
2016-11-28T05:10:03.549Z,24.76
2016-11-28T05:10:31.329Z,24.7
2016-11-28T05:10:59.091Z,24.77
2016-11-28T05:11:26.991Z,24.7
2016-11-28T05:11:54.726Z,24.74
2016-11-28T05:12:22.599Z,24.73
2016-11-28T05:12:50.493Z,24.8
2016-11-28T05:13:18.226Z,24.81
2016-11-28T05:13:46.011Z,24.8
2016-11-28T05:14:13.914Z,24.76
2016-11-28T05:14:41.696Z,24.86
2016-11-28T05:15:09.482Z,24.88
2016-11-28T05:15:37.381Z,24.8
2016-11-28T05:16:05.215Z,24.86
2016-11-28T05:16:32.963Z,24.88
2016-11-28T05:17:00.773Z,24.78
2016-11-28T05:17:28.736Z,24.91
2016-11-28T05:17:56.506Z,24.88
2016-11-28T05:18:24.288Z,24.81
2016-11-28T05:18:52.093Z,24.85
2016-11-28T05:19:20.042Z,24.74
2016-11-28T05:19:47.830Z,24.78
2016-11-28T05:20:15.597Z,24.7
2016-11-28T05:20:43.369Z,24.76
2016-11-28T05:21:11.155Z,24.86
2016-11-28T05:21:39.142Z,24.78
2016-11-28T05:22:06.977Z,24.78
2016-11-28T05:22:34.841Z,24.78
2016-11-28T05:23:02.604Z,24.76
2016-11-28T05:23:30.438Z,24.85
2016-11-28T05:23:58.278Z,24.78
2016-11-28T05:24:26.043Z,24.81
2016-11-28T05:24:53.805Z,24.84
2016-11-28T05:25:21.685Z,24.81
2016-11-28T05:25:49.506Z,24.86
2016-11-28T05:26:17.313Z,24.81
2016-11-28T05:26:45.143Z,24.85
2016-11-28T05:27:13.018Z,24.78
2016-11-28T05:27:40.962Z,24.81
2016-11-28T05:28:08.796Z,24.74
2016-11-28T05:28:36.705Z,24.81
2016-11-28T05:29:04.603Z,24.77
2016-11-28T05:29:32.405Z,24.8
2016-11-28T05:30:00.430Z,24.8
2016-11-28T05:30:28.308Z,24.74
2016-11-28T05:30:56.141Z,24.78
2016-11-28T05:31:23.929Z,24.78
2016-11-28T05:31:51.756Z,24.76
2016-11-28T05:32:19.587Z,24.76
2016-11-28T05:32:47.584Z,24.8
2016-11-28T05:33:15.360Z,24.84
2016-11-28T05:33:43.165Z,24.85
2016-11-28T05:34:10.934Z,24.77
2016-11-28T05:34:38.776Z,24.78
2016-11-28T05:35:06.659Z,24.74
2016-11-28T05:35:34.545Z,24.73
2016-11-28T05:36:02.289Z,24.81
2016-11-28T05:36:30.681Z,24.78
2016-11-28T05:36:58.484Z,24.86
2016-11-28T05:37:26.289Z,24.73
2016-11-28T05:37:54.190Z,24.78
2016-11-28T05:38:22.016Z,24.78
2016-11-28T05:38:49.767Z,24.8
2016-11-28T05:39:17.649Z,24.76
2016-11-28T05:39:45.474Z,24.78
2016-11-28T05:40:13.364Z,24.7
2016-11-28T05:40:41.197Z,24.77
2016-11-28T05:41:08.954Z,24.73
2016-11-28T05:41:36.777Z,24.7
2016-11-28T05:42:04.553Z,24.63
2016-11-28T05:42:32.332Z,24.74
2016-11-28T05:43:00.236Z,24.7
2016-11-28T05:43:28.082Z,24.78
2016-11-28T05:43:55.868Z,24.63
2016-11-28T05:44:23.694Z,24.73
2016-11-28T05:44:51.468Z,24.7
2016-11-28T05:45:19.270Z,24.7
2016-11-28T05:45:47.124Z,24.74
2016-11-28T05:46:15.120Z,24.6
2016-11-28T05:46:42.976Z,24.73
2016-11-28T05:47:10.765Z,24.57
2016-11-28T05:47:38.646Z,24.66
2016-11-28T05:48:06.515Z,24.57
2016-11-28T05:48:34.261Z,24.6
2016-11-28T05:49:02.024Z,24.6
2016-11-28T05:49:29.988Z,24.63
2016-11-28T05:49:57.787Z,24.61
2016-11-28T05:50:25.671Z,24.65
2016-11-28T05:50:53.532Z,24.58
2016-11-28T05:51:21.318Z,24.65
2016-11-28T05:51:49.281Z,24.65
2016-11-28T05:52:17.064Z,24.61
2016-11-28T05:52:44.920Z,24.69
2016-11-28T05:53:12.870Z,24.68
2016-11-28T05:53:40.649Z,24.61
2016-11-28T05:54:08.408Z,24.66
2016-11-28T05:54:36.217Z,24.58
2016-11-28T05:55:03.987Z,24.58
2016-11-28T05:55:31.876Z,24.58
2016-11-28T05:55:59.741Z,24.63
2016-11-28T05:56:27.581Z,24.66
2016-11-28T05:56:55.453Z,24.57
2016-11-28T05:57:23.253Z,24.63
2016-11-28T05:57:51.113Z,24.65
2016-11-28T05:58:19.015Z,24.57
2016-11-28T05:58:46.778Z,24.65
2016-11-28T05:59:14.523Z,24.6
2016-11-28T05:59:42.435Z,24.63
2016-11-28T06:00:10.174Z,24.63